Terminal Aerodrome Forecast
Issued by NWS Cleveland, OH

Home | Current Version | Previous Version | Text Only | Print | Product List | Glossary On
Versions: 1 2 3 4 5 6 7 8 9 10 11 12 13 14 15 16 17 18 19 20 21 22
000
FTUS41 KCLE 242300
TAFYNG
TAF
KYNG 242324Z 2500/2524 09006KT P6SM OVC250
     FM250600 12010KT P6SM OVC100
     FM251300 14012G20KT 6SM -RA OVC035
     FM251500 16015G25KT 3SM -RA OVC025
     FM251800 23015G25KT 3SM -RA OVC015
     FM252100 29015G30KT P6SM OVC025=

USA.gov is the U.S. government's official web portal to all federal, state and local government web resources and services.